sensor_id;sensor_type;location;lat;lon;timestamp;P1;durP1;ratioP1;P2;durP2;ratioP2
71622;SDS011;59473;53.214;5.728;2023-02-19T00:01:35;18.73;;;7.22;;
71622;SDS011;59473;53.214;5.728;2023-02-19T00:04:01;29.73;;;8.80;;
71622;SDS011;59473;53.214;5.728;2023-02-19T00:06:27;28.13;;;9.93;;
71622;SDS011;59473;53.214;5.728;2023-02-19T00:08:53;30.65;;;9.27;;
71622;SDS011;59473;53.214;5.728;2023-02-19T00:11:19;28.57;;;9.43;;
71622;SDS011;59473;53.214;5.728;2023-02-19T00:13:46;22.55;;;9.20;;
71622;SDS011;59473;53.214;5.728;2023-02-19T00:16:12;24.98;;;10.50;;
71622;SDS011;59473;53.214;5.728;2023-02-19T00:18:38;19.97;;;7.53;;
71622;SDS011;59473;53.214;5.728;2023-02-19T00:21:03;33.95;;;9.32;;
71622;SDS011;59473;53.214;5.728;2023-02-19T00:23:29;31.07;;;9.87;;
71622;SDS011;59473;53.214;5.728;2023-02-19T00:25:54;28.37;;;9.47;;
71622;SDS011;59473;53.214;5.728;2023-02-19T00:28:20;27.23;;;9.50;;
71622;SDS011;59473;53.214;5.728;2023-02-19T00:30:45;18.08;;;6.95;;
71622;SDS011;59473;53.214;5.728;2023-02-19T00:33:10;25.23;;;8.03;;
71622;SDS011;59473;53.214;5.728;2023-02-19T00:35:36;24.97;;;8.33;;
71622;SDS011;59473;53.214;5.728;2023-02-19T00:38:01;28.90;;;9.23;;
71622;SDS011;59473;53.214;5.728;2023-02-19T00:40:26;25.77;;;6.40;;
71622;SDS011;59473;53.214;5.728;2023-02-19T00:42:52;21.37;;;7.87;;
71622;SDS011;59473;53.214;5.728;2023-02-19T00:45:17;29.70;;;9.37;;
71622;SDS011;59473;53.214;5.728;2023-02-19T00:47:42;30.07;;;9.90;;
71622;SDS011;59473;53.214;5.728;2023-02-19T00:50:07;25.90;;;8.90;;
71622;SDS011;59473;53.214;5.728;2023-02-19T00:52:33;26.23;;;8.17;;
71622;SDS011;59473;53.214;5.728;2023-02-19T00:54:58;20.77;;;7.32;;
71622;SDS011;59473;53.214;5.728;2023-02-19T00:57:23;21.67;;;7.30;;
71622;SDS011;59473;53.214;5.728;2023-02-19T00:59:49;28.50;;;8.10;;
71622;SDS011;59473;53.214;5.728;2023-02-19T01:02:14;27.23;;;7.80;;
71622;SDS011;59473;53.214;5.728;2023-02-19T01:04:39;29.07;;;8.80;;
71622;SDS011;59473;53.214;5.728;2023-02-19T01:07:04;19.17;;;7.00;;
71622;SDS011;59473;53.214;5.728;2023-02-19T01:09:29;24.13;;;7.13;;
71622;SDS011;59473;53.214;5.728;2023-02-19T01:11:54;22.67;;;6.43;;
71622;SDS011;59473;53.214;5.728;2023-02-19T01:14:20;21.43;;;7.27;;
71622;SDS011;59473;53.214;5.728;2023-02-19T01:16:45;23.33;;;7.57;;
71622;SDS011;59473;53.214;5.728;2023-02-19T01:19:10;26.77;;;8.27;;
71622;SDS011;59473;53.214;5.728;2023-02-19T01:21:35;18.17;;;7.20;;
71622;SDS011;59473;53.214;5.728;2023-02-19T01:24:01;25.93;;;7.00;;
71622;SDS011;59473;53.214;5.728;2023-02-19T01:26:27;34.13;;;8.17;;
71622;SDS011;59473;53.214;5.728;2023-02-19T01:28:53;19.37;;;6.13;;
71622;SDS011;59473;53.214;5.728;2023-02-19T01:31:20;28.60;;;9.27;;
71622;SDS011;59473;53.214;5.728;2023-02-19T01:33:46;22.27;;;7.32;;
71622;SDS011;59473;53.214;5.728;2023-02-19T01:36:11;32.45;;;10.85;;
71622;SDS011;59473;53.214;5.728;2023-02-19T01:38:37;34.73;;;9.90;;
71622;SDS011;59473;53.214;5.728;2023-02-19T01:41:03;26.60;;;11.33;;
71622;SDS011;59473;53.214;5.728;2023-02-19T01:43:30;32.65;;;10.88;;
71622;SDS011;59473;53.214;5.728;2023-02-19T01:45:55;35.13;;;11.60;;
71622;SDS011;59473;53.214;5.728;2023-02-19T01:48:31;32.57;;;12.30;;
71622;SDS011;59473;53.214;5.728;2023-02-19T01:51:05;38.30;;;14.90;;
71622;SDS011;59473;53.214;5.728;2023-02-19T01:53:31;40.83;;;14.47;;
71622;SDS011;59473;53.214;5.728;2023-02-19T01:55:58;35.25;;;14.27;;
71622;SDS011;59473;53.214;5.728;2023-02-19T01:58:25;49.70;;;17.50;;
71622;SDS011;59473;53.214;5.728;2023-02-19T02:00:52;48.78;;;17.63;;
71622;SDS011;59473;53.214;5.728;2023-02-19T02:03:17;48.53;;;17.70;;
71622;SDS011;59473;53.214;5.728;2023-02-19T02:05:44;47.10;;;18.80;;
71622;SDS011;59473;53.214;5.728;2023-02-19T02:08:12;45.67;;;16.15;;
71622;SDS011;59473;53.214;5.728;2023-02-19T02:10:57;54.50;;;18.13;;
71622;SDS011;59473;53.214;5.728;2023-02-19T02:13:22;56.03;;;20.03;;
71622;SDS011;59473;53.214;5.728;2023-02-19T02:15:59;55.43;;;18.57;;
71622;SDS011;59473;53.214;5.728;2023-02-19T02:21:02;52.72;;;16.88;;
71622;SDS011;59473;53.214;5.728;2023-02-19T02:23:39;52.03;;;19.37;;
71622;SDS011;59473;53.214;5.728;2023-02-19T02:31:12;64.25;;;23.00;;
71622;SDS011;59473;53.214;5.728;2023-02-19T02:33:50;64.13;;;19.45;;
71622;SDS011;59473;53.214;5.728;2023-02-19T02:36:22;48.97;;;16.13;;
71622;SDS011;59473;53.214;5.728;2023-02-19T02:38:48;17.87;;;8.17;;
71622;SDS011;59473;53.214;5.728;2023-02-19T02:41:14;19.17;;;7.88;;
71622;SDS011;59473;53.214;5.728;2023-02-19T02:43:39;19.10;;;7.30;;
71622;SDS011;59473;53.214;5.728;2023-02-19T02:46:05;12.93;;;5.40;;
71622;SDS011;59473;53.214;5.728;2023-02-19T02:51:21;15.85;;;7.05;;
71622;SDS011;59473;53.214;5.728;2023-02-19T02:53:48;21.17;;;8.63;;
71622;SDS011;59473;53.214;5.728;2023-02-19T02:56:33;21.63;;;10.45;;
71622;SDS011;59473;53.214;5.728;2023-02-19T02:58:59;26.60;;;11.23;;
71622;SDS011;59473;53.214;5.728;2023-02-19T03:01:31;23.10;;;11.90;;
71622;SDS011;59473;53.214;5.728;2023-02-19T03:04:20;22.73;;;12.07;;
71622;SDS011;59473;53.214;5.728;2023-02-19T03:06:47;19.63;;;9.85;;
71622;SDS011;59473;53.214;5.728;2023-02-19T03:09:14;18.92;;;9.57;;
71622;SDS011;59473;53.214;5.728;2023-02-19T03:11:44;18.63;;;8.83;;
71622;SDS011;59473;53.214;5.728;2023-02-19T03:14:30;14.07;;;7.80;;
71622;SDS011;59473;53.214;5.728;2023-02-19T03:17:18;13.75;;;6.13;;
71622;SDS011;59473;53.214;5.728;2023-02-19T03:20:04;12.43;;;5.68;;
71622;SDS011;59473;53.214;5.728;2023-02-19T03:22:32;15.65;;;7.40;;
71622;SDS011;59473;53.214;5.728;2023-02-19T03:25:04;12.90;;;6.13;;
71622;SDS011;59473;53.214;5.728;2023-02-19T03:27:49;16.63;;;6.45;;
71622;SDS011;59473;53.214;5.728;2023-02-19T03:30:17;14.68;;;6.50;;
71622;SDS011;59473;53.214;5.728;2023-02-19T03:33:26;15.23;;;6.30;;
71622;SDS011;59473;53.214;5.728;2023-02-19T03:35:33;12.77;;;5.30;;
71622;SDS011;59473;53.214;5.728;2023-02-19T03:40:26;11.10;;;5.00;;
71622;SDS011;59473;53.214;5.728;2023-02-19T03:47:54;10.13;;;4.85;;
71622;SDS011;59473;53.214;5.728;2023-02-19T03:55:16;10.70;;;4.23;;
71622;SDS011;59473;53.214;5.728;2023-02-19T04:00:24;12.25;;;4.82;;
71622;SDS011;59473;53.214;5.728;2023-02-19T04:02:59;10.13;;;3.95;;
71622;SDS011;59473;53.214;5.728;2023-02-19T04:05:26;13.35;;;4.95;;
71622;SDS011;59473;53.214;5.728;2023-02-19T04:07:54;7.67;;;3.90;;
71622;SDS011;59473;53.214;5.728;2023-02-19T04:10:21;12.40;;;5.18;;
71622;SDS011;59473;53.214;5.728;2023-02-19T04:12:48;9.13;;;4.28;;
71622;SDS011;59473;53.214;5.728;2023-02-19T04:15:16;9.23;;;5.07;;
71622;SDS011;59473;53.214;5.728;2023-02-19T04:17:53;10.73;;;5.97;;
71622;SDS011;59473;53.214;5.728;2023-02-19T04:20:18;9.63;;;5.50;;
71622;SDS011;59473;53.214;5.728;2023-02-19T04:22:44;16.95;;;8.35;;
71622;SDS011;59473;53.214;5.728;2023-02-19T04:25:10;20.23;;;7.93;;
71622;SDS011;59473;53.214;5.728;2023-02-19T04:27:36;21.00;;;9.70;;
71622;SDS011;59473;53.214;5.728;2023-02-19T04:30:02;24.63;;;9.73;;
71622;SDS011;59473;53.214;5.728;2023-02-19T04:32:27;20.80;;;9.68;;
71622;SDS011;59473;53.214;5.728;2023-02-19T04:34:52;21.03;;;8.47;;
71622;SDS011;59473;53.214;5.728;2023-02-19T04:37:18;18.90;;;8.93;;
71622;SDS011;59473;53.214;5.728;2023-02-19T04:39:43;17.53;;;7.50;;
71622;SDS011;59473;53.214;5.728;2023-02-19T04:42:09;20.13;;;8.53;;
71622;SDS011;59473;53.214;5.728;2023-02-19T04:44:34;19.53;;;8.40;;
71622;SDS011;59473;53.214;5.728;2023-02-19T04:46:59;16.47;;;8.67;;
71622;SDS011;59473;53.214;5.728;2023-02-19T04:49:25;13.83;;;7.33;;
71622;SDS011;59473;53.214;5.728;2023-02-19T04:51:50;14.40;;;7.07;;
71622;SDS011;59473;53.214;5.728;2023-02-19T04:54:15;16.27;;;7.80;;
71622;SDS011;59473;53.214;5.728;2023-02-19T04:56:40;15.53;;;6.87;;
71622;SDS011;59473;53.214;5.728;2023-02-19T04:59:05;13.27;;;6.77;;
71622;SDS011;59473;53.214;5.728;2023-02-19T05:01:31;15.63;;;7.20;;
71622;SDS011;59473;53.214;5.728;2023-02-19T05:03:56;10.52;;;6.43;;
71622;SDS011;59473;53.214;5.728;2023-02-19T05:06:21;13.70;;;7.63;;
71622;SDS011;59473;53.214;5.728;2023-02-19T05:08:46;11.43;;;5.97;;
71622;SDS011;59473;53.214;5.728;2023-02-19T05:11:12;12.45;;;6.10;;
71622;SDS011;59473;53.214;5.728;2023-02-19T05:13:37;9.05;;;4.68;;
71622;SDS011;59473;53.214;5.728;2023-02-19T05:16:04;6.72;;;4.07;;
71622;SDS011;59473;53.214;5.728;2023-02-19T05:18:30;10.02;;;4.20;;
71622;SDS011;59473;53.214;5.728;2023-02-19T05:20:56;9.80;;;4.07;;
71622;SDS011;59473;53.214;5.728;2023-02-19T05:23:21;8.50;;;3.55;;
71622;SDS011;59473;53.214;5.728;2023-02-19T05:25:47;7.83;;;4.33;;
71622;SDS011;59473;53.214;5.728;2023-02-19T05:28:12;10.68;;;3.88;;
71622;SDS011;59473;53.214;5.728;2023-02-19T05:30:48;9.27;;;3.90;;
71622;SDS011;59473;53.214;5.728;2023-02-19T05:33:13;9.00;;;3.58;;
71622;SDS011;59473;53.214;5.728;2023-02-19T05:35:39;8.45;;;3.95;;
71622;SDS011;59473;53.214;5.728;2023-02-19T05:38:05;9.00;;;3.93;;
71622;SDS011;59473;53.214;5.728;2023-02-19T05:40:32;6.13;;;4.10;;
71622;SDS011;59473;53.214;5.728;2023-02-19T05:42:57;12.30;;;4.10;;
71622;SDS011;59473;53.214;5.728;2023-02-19T05:45:22;8.33;;;3.87;;
71622;SDS011;59473;53.214;5.728;2023-02-19T05:47:47;6.10;;;3.40;;
71622;SDS011;59473;53.214;5.728;2023-02-19T05:50:13;7.22;;;3.15;;
71622;SDS011;59473;53.214;5.728;2023-02-19T05:52:38;7.07;;;3.28;;
71622;SDS011;59473;53.214;5.728;2023-02-19T05:55:03;5.90;;;3.40;;
71622;SDS011;59473;53.214;5.728;2023-02-19T05:57:28;4.93;;;3.10;;
71622;SDS011;59473;53.214;5.728;2023-02-19T05:59:55;4.83;;;2.77;;
71622;SDS011;59473;53.214;5.728;2023-02-19T06:02:20;7.20;;;3.90;;
71622;SDS011;59473;53.214;5.728;2023-02-19T06:04:45;5.00;;;2.90;;
71622;SDS011;59473;53.214;5.728;2023-02-19T06:07:10;5.43;;;2.80;;
71622;SDS011;59473;53.214;5.728;2023-02-19T06:09:35;5.60;;;3.10;;
71622;SDS011;59473;53.214;5.728;2023-02-19T06:12:01;5.73;;;2.90;;
71622;SDS011;59473;53.214;5.728;2023-02-19T06:14:26;5.63;;;3.27;;
71622;SDS011;59473;53.214;5.728;2023-02-19T06:16:51;9.53;;;3.57;;
71622;SDS011;59473;53.214;5.728;2023-02-19T06:19:16;5.60;;;3.33;;
71622;SDS011;59473;53.214;5.728;2023-02-19T06:21:41;6.77;;;3.40;;
71622;SDS011;59473;53.214;5.728;2023-02-19T06:24:07;6.53;;;2.97;;
71622;SDS011;59473;53.214;5.728;2023-02-19T06:26:33;6.95;;;3.30;;
71622;SDS011;59473;53.214;5.728;2023-02-19T06:28:58;8.87;;;3.33;;
71622;SDS011;59473;53.214;5.728;2023-02-19T06:31:23;6.23;;;3.60;;
71622;SDS011;59473;53.214;5.728;2023-02-19T06:33:49;5.83;;;3.43;;
71622;SDS011;59473;53.214;5.728;2023-02-19T06:36:18;7.53;;;3.63;;
71622;SDS011;59473;53.214;5.728;2023-02-19T06:38:43;9.77;;;3.28;;
71622;SDS011;59473;53.214;5.728;2023-02-19T06:41:09;8.13;;;3.33;;
71622;SDS011;59473;53.214;5.728;2023-02-19T06:43:35;8.55;;;3.50;;
71622;SDS011;59473;53.214;5.728;2023-02-19T06:46:01;7.60;;;3.67;;
71622;SDS011;59473;53.214;5.728;2023-02-19T06:48:27;8.15;;;3.80;;
71622;SDS011;59473;53.214;5.728;2023-02-19T06:50:52;7.22;;;3.35;;
71622;SDS011;59473;53.214;5.728;2023-02-19T06:53:17;6.73;;;3.93;;
71622;SDS011;59473;53.214;5.728;2023-02-19T06:55:43;7.67;;;3.53;;
71622;SDS011;59473;53.214;5.728;2023-02-19T06:58:08;7.40;;;3.33;;
71622;SDS011;59473;53.214;5.728;2023-02-19T07:00:33;6.83;;;3.33;;
71622;SDS011;59473;53.214;5.728;2023-02-19T07:02:59;4.03;;;2.80;;
71622;SDS011;59473;53.214;5.728;2023-02-19T07:05:24;4.03;;;3.20;;
71622;SDS011;59473;53.214;5.728;2023-02-19T07:07:49;3.97;;;2.80;;
71622;SDS011;59473;53.214;5.728;2023-02-19T07:10:15;3.95;;;2.50;;
71622;SDS011;59473;53.214;5.728;2023-02-19T07:12:40;6.47;;;3.35;;
71622;SDS011;59473;53.214;5.728;2023-02-19T07:15:05;4.33;;;2.73;;
71622;SDS011;59473;53.214;5.728;2023-02-19T07:17:31;4.13;;;2.77;;
71622;SDS011;59473;53.214;5.728;2023-02-19T07:19:57;4.82;;;2.55;;
71622;SDS011;59473;53.214;5.728;2023-02-19T07:22:22;3.67;;;2.87;;
71622;SDS011;59473;53.214;5.728;2023-02-19T07:24:48;4.97;;;2.93;;
71622;SDS011;59473;53.214;5.728;2023-02-19T07:27:13;4.03;;;2.97;;
71622;SDS011;59473;53.214;5.728;2023-02-19T07:29:38;7.10;;;3.20;;
71622;SDS011;59473;53.214;5.728;2023-02-19T07:32:03;4.57;;;3.33;;
71622;SDS011;59473;53.214;5.728;2023-02-19T07:34:28;4.07;;;3.17;;
71622;SDS011;59473;53.214;5.728;2023-02-19T07:36:54;6.43;;;3.50;;
71622;SDS011;59473;53.214;5.728;2023-02-19T07:39:19;4.90;;;3.00;;
71622;SDS011;59473;53.214;5.728;2023-02-19T07:41:44;6.87;;;3.87;;
71622;SDS011;59473;53.214;5.728;2023-02-19T07:44:09;109.33;;;37.67;;
71622;SDS011;59473;53.214;5.728;2023-02-19T07:46:37;72.15;;;26.33;;
71622;SDS011;59473;53.214;5.728;2023-02-19T07:49:02;30.33;;;12.17;;
71622;SDS011;59473;53.214;5.728;2023-02-19T07:51:28;20.77;;;8.67;;
71622;SDS011;59473;53.214;5.728;2023-02-19T07:53:53;13.57;;;6.70;;
71622;SDS011;59473;53.214;5.728;2023-02-19T07:56:18;12.03;;;5.77;;
71622;SDS011;59473;53.214;5.728;2023-02-19T07:58:43;15.73;;;5.20;;
71622;SDS011;59473;53.214;5.728;2023-02-19T08:01:14;8.48;;;5.20;;
71622;SDS011;59473;53.214;5.728;2023-02-19T08:03:39;8.93;;;4.50;;
71622;SDS011;59473;53.214;5.728;2023-02-19T08:06:05;10.90;;;4.70;;
71622;SDS011;59473;53.214;5.728;2023-02-19T08:08:30;5.33;;;3.30;;
71622;SDS011;59473;53.214;5.728;2023-02-19T08:11:00;5.47;;;3.23;;
71622;SDS011;59473;53.214;5.728;2023-02-19T08:13:46;4.70;;;3.00;;
71622;SDS011;59473;53.214;5.728;2023-02-19T08:16:12;4.40;;;3.17;;
71622;SDS011;59473;53.214;5.728;2023-02-19T08:18:39;4.30;;;2.80;;
71622;SDS011;59473;53.214;5.728;2023-02-19T08:21:05;5.80;;;3.47;;
71622;SDS011;59473;53.214;5.728;2023-02-19T08:23:30;5.83;;;3.13;;
71622;SDS011;59473;53.214;5.728;2023-02-19T08:25:56;4.90;;;2.77;;
71622;SDS011;59473;53.214;5.728;2023-02-19T08:28:22;5.65;;;3.03;;
71622;SDS011;59473;53.214;5.728;2023-02-19T08:30:47;7.07;;;3.53;;
71622;SDS011;59473;53.214;5.728;2023-02-19T08:33:13;14.53;;;7.40;;
71622;SDS011;59473;53.214;5.728;2023-02-19T08:35:39;4.90;;;3.22;;
71622;SDS011;59473;53.214;5.728;2023-02-19T08:38:05;5.38;;;2.85;;
71622;SDS011;59473;53.214;5.728;2023-02-19T08:40:31;7.90;;;3.73;;
71622;SDS011;59473;53.214;5.728;2023-02-19T08:43:03;4.50;;;2.88;;
71622;SDS011;59473;53.214;5.728;2023-02-19T08:45:29;4.60;;;2.70;;
71622;SDS011;59473;53.214;5.728;2023-02-19T08:47:55;6.25;;;2.80;;
71622;SDS011;59473;53.214;5.728;2023-02-19T08:50:20;5.00;;;2.77;;
71622;SDS011;59473;53.214;5.728;2023-02-19T08:52:46;4.00;;;2.57;;
71622;SDS011;59473;53.214;5.728;2023-02-19T08:55:11;5.53;;;3.30;;
71622;SDS011;59473;53.214;5.728;2023-02-19T08:57:36;7.43;;;3.30;;
71622;SDS011;59473;53.214;5.728;2023-02-19T09:00:02;6.00;;;2.83;;
71622;SDS011;59473;53.214;5.728;2023-02-19T09:02:28;7.77;;;3.63;;
71622;SDS011;59473;53.214;5.728;2023-02-19T09:04:54;6.30;;;3.17;;
71622;SDS011;59473;53.214;5.728;2023-02-19T09:07:19;6.23;;;3.80;;
71622;SDS011;59473;53.214;5.728;2023-02-19T09:09:44;6.10;;;3.80;;
71622;SDS011;59473;53.214;5.728;2023-02-19T09:12:10;7.83;;;3.63;;
71622;SDS011;59473;53.214;5.728;2023-02-19T09:14:36;7.07;;;3.80;;
71622;SDS011;59473;53.214;5.728;2023-02-19T09:17:02;6.40;;;3.73;;
71622;SDS011;59473;53.214;5.728;2023-02-19T09:19:27;7.18;;;3.55;;
71622;SDS011;59473;53.214;5.728;2023-02-19T09:21:53;7.37;;;3.20;;
71622;SDS011;59473;53.214;5.728;2023-02-19T09:24:18;6.82;;;3.15;;
71622;SDS011;59473;53.214;5.728;2023-02-19T09:26:43;6.57;;;2.72;;
71622;SDS011;59473;53.214;5.728;2023-02-19T09:29:09;8.63;;;3.10;;
71622;SDS011;59473;53.214;5.728;2023-02-19T09:31:34;8.40;;;3.60;;
71622;SDS011;59473;53.214;5.728;2023-02-19T09:33:59;5.60;;;3.80;;
71622;SDS011;59473;53.214;5.728;2023-02-19T09:36:24;7.30;;;3.33;;
71622;SDS011;59473;53.214;5.728;2023-02-19T09:38:50;5.47;;;3.57;;
71622;SDS011;59473;53.214;5.728;2023-02-19T09:41:32;8.93;;;2.60;;
71622;SDS011;59473;53.214;5.728;2023-02-19T09:43:58;5.05;;;2.92;;
71622;SDS011;59473;53.214;5.728;2023-02-19T09:46:27;6.83;;;2.80;;
71622;SDS011;59473;53.214;5.728;2023-02-19T09:48:55;5.85;;;3.40;;
71622;SDS011;59473;53.214;5.728;2023-02-19T09:51:21;7.35;;;3.80;;
71622;SDS011;59473;53.214;5.728;2023-02-19T09:53:48;7.38;;;3.55;;
71622;SDS011;59473;53.214;5.728;2023-02-19T09:56:15;5.03;;;3.00;;
71622;SDS011;59473;53.214;5.728;2023-02-19T09:58:47;6.35;;;2.90;;
71622;SDS011;59473;53.214;5.728;2023-02-19T10:01:13;5.55;;;3.08;;
71622;SDS011;59473;53.214;5.728;2023-02-19T10:03:39;8.40;;;2.93;;
71622;SDS011;59473;53.214;5.728;2023-02-19T10:06:10;5.90;;;3.55;;
71622;SDS011;59473;53.214;5.728;2023-02-19T10:08:37;6.35;;;2.80;;
71622;SDS011;59473;53.214;5.728;2023-02-19T10:11:03;7.60;;;3.00;;
71622;SDS011;59473;53.214;5.728;2023-02-19T10:13:33;6.63;;;3.25;;
71622;SDS011;59473;53.214;5.728;2023-02-19T10:16:00;8.88;;;3.00;;
71622;SDS011;59473;53.214;5.728;2023-02-19T10:18:27;5.40;;;2.60;;
71622;SDS011;59473;53.214;5.728;2023-02-19T10:20:53;5.00;;;2.72;;
71622;SDS011;59473;53.214;5.728;2023-02-19T10:23:19;5.85;;;2.67;;
71622;SDS011;59473;53.214;5.728;2023-02-19T10:26:02;5.97;;;2.73;;
71622;SDS011;59473;53.214;5.728;2023-02-19T10:28:32;6.95;;;3.08;;
71622;SDS011;59473;53.214;5.728;2023-02-19T10:30:58;7.82;;;3.00;;
71622;SDS011;59473;53.214;5.728;2023-02-19T10:33:24;8.63;;;3.30;;
71622;SDS011;59473;53.214;5.728;2023-02-19T10:38:16;6.97;;;3.10;;
71622;SDS011;59473;53.214;5.728;2023-02-19T10:40:45;5.45;;;2.80;;
71622;SDS011;59473;53.214;5.728;2023-02-19T10:43:27;6.50;;;2.30;;
71622;SDS011;59473;53.214;5.728;2023-02-19T10:45:57;5.53;;;3.03;;
71622;SDS011;59473;53.214;5.728;2023-02-19T10:48:30;6.67;;;2.67;;
71622;SDS011;59473;53.214;5.728;2023-02-19T10:51:07;7.85;;;2.95;;
71622;SDS011;59473;53.214;5.728;2023-02-19T10:53:46;6.53;;;2.55;;
71622;SDS011;59473;53.214;5.728;2023-02-19T10:56:13;8.55;;;2.72;;
71622;SDS011;59473;53.214;5.728;2023-02-19T10:58:38;5.47;;;2.53;;
71622;SDS011;59473;53.214;5.728;2023-02-19T11:01:17;6.73;;;3.57;;
71622;SDS011;59473;53.214;5.728;2023-02-19T11:03:52;6.00;;;2.20;;
71622;SDS011;59473;53.214;5.728;2023-02-19T11:06:18;6.40;;;2.70;;
71622;SDS011;59473;53.214;5.728;2023-02-19T11:08:45;6.28;;;2.78;;
71622;SDS011;59473;53.214;5.728;2023-02-19T11:11:23;7.10;;;2.80;;
71622;SDS011;59473;53.214;5.728;2023-02-19T11:13:49;6.00;;;2.10;;
71622;SDS011;59473;53.214;5.728;2023-02-19T11:16:15;11.75;;;2.47;;
71622;SDS011;59473;53.214;5.728;2023-02-19T11:18:40;6.30;;;2.20;;
71622;SDS011;59473;53.214;5.728;2023-02-19T11:21:07;6.13;;;2.50;;
71622;SDS011;59473;53.214;5.728;2023-02-19T11:23:46;7.07;;;2.35;;
71622;SDS011;59473;53.214;5.728;2023-02-19T11:26:18;8.27;;;2.53;;
71622;SDS011;59473;53.214;5.728;2023-02-19T11:28:44;7.82;;;3.00;;
71622;SDS011;59473;53.214;5.728;2023-02-19T11:31:26;5.07;;;2.13;;
71622;SDS011;59473;53.214;5.728;2023-02-19T11:33:56;6.53;;;2.35;;
71622;SDS011;59473;53.214;5.728;2023-02-19T11:38:47;6.10;;;2.50;;
71622;SDS011;59473;53.214;5.728;2023-02-19T11:41:15;5.20;;;2.00;;
71622;SDS011;59473;53.214;5.728;2023-02-19T11:44:29;6.72;;;2.75;;
71622;SDS011;59473;53.214;5.728;2023-02-19T11:51:54;7.72;;;2.75;;
71622;SDS011;59473;53.214;5.728;2023-02-19T11:54:29;10.93;;;2.92;;
71622;SDS011;59473;53.214;5.728;2023-02-19T11:57:21;6.50;;;2.60;;
71622;SDS011;59473;53.214;5.728;2023-02-19T12:04:58;7.90;;;2.80;;
71622;SDS011;59473;53.214;5.728;2023-02-19T12:12:49;7.03;;;2.65;;
71622;SDS011;59473;53.214;5.728;2023-02-19T12:15:20;6.77;;;2.73;;
71622;SDS011;59473;53.214;5.728;2023-02-19T12:23:23;8.40;;;2.50;;
71622;SDS011;59473;53.214;5.728;2023-02-19T12:36:17;12.02;;;3.50;;
71622;SDS011;59473;53.214;5.728;2023-02-19T12:38:51;10.05;;;2.53;;
71622;SDS011;59473;53.214;5.728;2023-02-19T12:41:25;10.23;;;3.17;;
71622;SDS011;59473;53.214;5.728;2023-02-19T12:43:53;8.13;;;3.00;;
71622;SDS011;59473;53.214;5.728;2023-02-19T12:46:26;9.52;;;2.92;;
71622;SDS011;59473;53.214;5.728;2023-02-19T12:48:56;10.13;;;3.00;;
71622;SDS011;59473;53.214;5.728;2023-02-19T12:56:18;11.47;;;2.73;;
71622;SDS011;59473;53.214;5.728;2023-02-19T12:58:46;8.27;;;2.60;;
71622;SDS011;59473;53.214;5.728;2023-02-19T13:01:13;11.70;;;3.23;;
71622;SDS011;59473;53.214;5.728;2023-02-19T13:03:40;11.35;;;3.45;;
71622;SDS011;59473;53.214;5.728;2023-02-19T13:08:40;12.75;;;2.92;;
71622;SDS011;59473;53.214;5.728;2023-02-19T13:11:09;9.57;;;3.45;;
71622;SDS011;59473;53.214;5.728;2023-02-19T13:16:04;12.10;;;2.70;;
71622;SDS011;59473;53.214;5.728;2023-02-19T13:18:35;10.90;;;2.95;;
71622;SDS011;59473;53.214;5.728;2023-02-19T13:21:02;11.40;;;2.65;;
71622;SDS011;59473;53.214;5.728;2023-02-19T13:23:29;10.17;;;3.27;;
71622;SDS011;59473;53.214;5.728;2023-02-19T13:29:03;12.23;;;2.40;;
71622;SDS011;59473;53.214;5.728;2023-02-19T13:31:48;7.93;;;3.15;;
71622;SDS011;59473;53.214;5.728;2023-02-19T13:36:52;6.32;;;3.10;;
71622;SDS011;59473;53.214;5.728;2023-02-19T13:39:18;9.05;;;3.03;;
71622;SDS011;59473;53.214;5.728;2023-02-19T13:41:50;9.50;;;2.83;;
71622;SDS011;59473;53.214;5.728;2023-02-19T13:44:17;6.43;;;2.67;;
71622;SDS011;59473;53.214;5.728;2023-02-19T13:46:44;11.13;;;3.67;;
71622;SDS011;59473;53.214;5.728;2023-02-19T13:51:47;7.88;;;3.05;;
71622;SDS011;59473;53.214;5.728;2023-02-19T13:54:34;7.07;;;2.40;;
71622;SDS011;59473;53.214;5.728;2023-02-19T13:59:48;8.27;;;3.30;;
71622;SDS011;59473;53.214;5.728;2023-02-19T14:04:46;9.55;;;3.58;;
71622;SDS011;59473;53.214;5.728;2023-02-19T14:12:16;6.07;;;2.70;;
71622;SDS011;59473;53.214;5.728;2023-02-19T14:14:45;7.38;;;2.53;;
71622;SDS011;59473;53.214;5.728;2023-02-19T14:19:57;7.43;;;3.03;;
71622;SDS011;59473;53.214;5.728;2023-02-19T14:28:02;7.50;;;2.88;;
71622;SDS011;59473;53.214;5.728;2023-02-19T14:30:29;12.82;;;3.15;;
71622;SDS011;59473;53.214;5.728;2023-02-19T14:32:56;10.52;;;3.30;;
71622;SDS011;59473;53.214;5.728;2023-02-19T14:35:22;8.30;;;3.00;;
71622;SDS011;59473;53.214;5.728;2023-02-19T14:37:49;8.30;;;2.85;;
71622;SDS011;59473;53.214;5.728;2023-02-19T14:40:19;10.73;;;2.70;;
71622;SDS011;59473;53.214;5.728;2023-02-19T14:42:46;10.07;;;2.90;;
71622;SDS011;59473;53.214;5.728;2023-02-19T14:45:12;10.40;;;3.53;;
71622;SDS011;59473;53.214;5.728;2023-02-19T14:47:39;8.55;;;2.83;;
71622;SDS011;59473;53.214;5.728;2023-02-19T14:50:06;12.33;;;3.43;;
71622;SDS011;59473;53.214;5.728;2023-02-19T14:52:40;7.53;;;2.97;;
71622;SDS011;59473;53.214;5.728;2023-02-19T14:55:11;9.05;;;3.08;;
71622;SDS011;59473;53.214;5.728;2023-02-19T14:57:39;7.40;;;2.58;;
71622;SDS011;59473;53.214;5.728;2023-02-19T15:02:42;10.37;;;2.80;;
71622;SDS011;59473;53.214;5.728;2023-02-19T15:05:17;9.93;;;3.00;;
71622;SDS011;59473;53.214;5.728;2023-02-19T15:07:43;5.82;;;2.80;;
71622;SDS011;59473;53.214;5.728;2023-02-19T15:10:10;11.02;;;2.78;;
71622;SDS011;59473;53.214;5.728;2023-02-19T15:15:05;9.50;;;3.20;;
71622;SDS011;59473;53.214;5.728;2023-02-19T15:17:31;7.47;;;2.38;;
71622;SDS011;59473;53.214;5.728;2023-02-19T15:19:59;9.05;;;2.88;;
71622;SDS011;59473;53.214;5.728;2023-02-19T15:22:26;7.75;;;3.05;;
71622;SDS011;59473;53.214;5.728;2023-02-19T15:24:53;9.97;;;2.93;;
71622;SDS011;59473;53.214;5.728;2023-02-19T15:27:20;9.52;;;3.53;;
71622;SDS011;59473;53.214;5.728;2023-02-19T15:29:47;8.60;;;2.75;;
71622;SDS011;59473;53.214;5.728;2023-02-19T15:32:14;10.45;;;3.45;;
71622;SDS011;59473;53.214;5.728;2023-02-19T15:34:40;10.35;;;2.85;;
71622;SDS011;59473;53.214;5.728;2023-02-19T15:37:06;13.55;;;3.97;;
71622;SDS011;59473;53.214;5.728;2023-02-19T15:39:44;9.52;;;2.78;;
71622;SDS011;59473;53.214;5.728;2023-02-19T15:42:15;6.18;;;2.58;;
71622;SDS011;59473;53.214;5.728;2023-02-19T15:44:50;7.80;;;2.95;;
71622;SDS011;59473;53.214;5.728;2023-02-19T15:49:48;7.33;;;3.53;;
71622;SDS011;59473;53.214;5.728;2023-02-19T15:52:18;8.10;;;2.10;;
71622;SDS011;59473;53.214;5.728;2023-02-19T15:54:50;7.63;;;3.20;;
71622;SDS011;59473;53.214;5.728;2023-02-19T15:57:18;9.73;;;3.05;;
71622;SDS011;59473;53.214;5.728;2023-02-19T16:00:05;8.70;;;3.13;;
71622;SDS011;59473;53.214;5.728;2023-02-19T16:02:33;12.00;;;3.47;;
71622;SDS011;59473;53.214;5.728;2023-02-19T16:04:58;15.45;;;3.55;;
71622;SDS011;59473;53.214;5.728;2023-02-19T16:07:27;11.77;;;3.77;;
71622;SDS011;59473;53.214;5.728;2023-02-19T16:12:54;5.65;;;3.03;;
71622;SDS011;59473;53.214;5.728;2023-02-19T16:15:19;10.63;;;3.17;;
71622;SDS011;59473;53.214;5.728;2023-02-19T16:17:44;11.30;;;3.63;;
71622;SDS011;59473;53.214;5.728;2023-02-19T16:20:20;6.90;;;2.93;;
71622;SDS011;59473;53.214;5.728;2023-02-19T16:22:45;8.93;;;3.00;;
71622;SDS011;59473;53.214;5.728;2023-02-19T16:25:20;12.83;;;3.50;;
71622;SDS011;59473;53.214;5.728;2023-02-19T16:27:47;9.95;;;3.60;;
71622;SDS011;59473;53.214;5.728;2023-02-19T16:32:40;7.03;;;2.90;;
71622;SDS011;59473;53.214;5.728;2023-02-19T16:35:26;12.57;;;3.63;;
71622;SDS011;59473;53.214;5.728;2023-02-19T16:37:57;8.95;;;3.35;;